• Join FlightAware (Why Join?)
  • Login
  • US Flag 
07:45PM EDT


 

Airport Tracker/Info


-or-


 

Live Flight TrackerFlight Track Log ✈ N885WT ✈ 25-Oct-2013 ✈ KCRQ - KLAS

Flight Track Log - Related Links

Times and Time Zones

All times are in EDT time to prevent confusion due to time zone crossing. See the N885WT flight status page for this flight to view local times or setup timezone preferences in your user account.

Time Position Orientation Groundspeed Altitude Reporting Facility
EDT Latitude Longitude Course Direction KTS MPH feet Rate Location/Type
09:51AM 33.1167 -117.3667 262° West 243 280 3,800  Level Southern California TRACON
09:52AM 33.1053 -117.4633 262° West 254 292 9,000 4,260 Climbing Los Angeles Center
09:53AM 33.0953 -117.5919 265° West 315 362 13,500 3,540 Climbing Los Angeles Center
09:54AM 33.1233 -117.7078 286° West 354 407 16,300 3,240 Climbing Los Angeles Center
09:55AM 33.1811 -117.8081 305° West 365 420 20,200 3,240 Climbing Los Angeles Center
09:56AM 33.2392 -117.9150 303° West 376 433 23,000 1,320 Climbing Los Angeles Center
09:57AM 33.3122 -118.0256 308° West 413 475 23,000  Level Los Angeles Center
09:58AM 33.4083 -118.1044 326° Northwest 418 481 23,000  Level Los Angeles Center
09:59AM 33.5061 -118.1858 325° Northwest 424 488 23,000  Level Los Angeles Center
10:00AM 33.6175 -118.2039 352° North 438 504 23,000  Level Los Angeles Center
10:01AM 33.7381 -118.0950 37° Northeast 461 531 23,000  Level Los Angeles Center
10:02AM 33.8403 -118.0042 36° Northeast 463 533 23,000  Level Los Angeles Center
10:03AM 33.9422 -117.9122 37° Northeast 461 531 23,000  Level Los Angeles Center
10:04AM 34.0439 -117.8186 37° Northeast 461 531 23,000  Level Los Angeles Center
10:05AM 34.1347 -117.7111 44° Northeast 461 531 23,000  Level Los Angeles Center
10:06AM 34.2208 -117.5958 48° Northeast 463 533 23,000  Level Los Angeles Center
10:07AM 34.3239 -117.4550 48° Northeast 465 535 23,000  Level Los Angeles Center
10:09AM 34.3958 -117.3561 49° Northeast 466 536 23,000  Level Los Angeles Center
10:10AM 34.4806 -117.2411 48° Northeast 461 531 23,000  Level Los Angeles Center
10:11AM 34.5817 -117.1028 48° Northeast 460 529 23,000  Level Los Angeles Center
10:12AM 34.6658 -116.9867 49° Northeast 462 532 23,000  Level Los Angeles Center
10:13AM 34.7500 -116.8692 49° Northeast 462 532 23,000  Level Los Angeles Center
10:14AM 34.8342 -116.7528 49° Northeast 462 532 23,000  Level Los Angeles Center
10:15AM 34.9183 -116.6350 49° Northeast 463 533 23,000  Level Los Angeles Center
10:16AM 35.0072 -116.5203 47° Northeast 466 536 23,000  Level Los Angeles Center
10:17AM 35.1128 -116.3872 46° Northeast 460 529 23,000 -840 Level Los Angeles Center
10:18AM 35.2011 -116.2761 46° Northeast 458 527 21,300 -1,560 Descending Los Angeles Center
10:19AM 35.2858 -116.1697 46° Northeast 443 510 19,800 -1,500 Descending Los Angeles Center
10:20AM 35.3667 -116.0675 46° Northeast 424 488 18,300 -1,320 Descending Los Angeles Center
10:21AM 35.4461 -115.9689 45° Northeast 412 474 17,100 -1,320 Descending Los Angeles Center
10:22AM 35.5294 -115.8647 45° Northeast 396 456 15,600 -1,500 Descending Los Angeles Center
10:22AM 35.5639 -115.8269 42° Northeast 362 417 15,000 -1,500 Descending Los Angeles Center
10:22AM 35.5769 -115.8069 51° Northeast 346 398 14,700 -960 Descending Los Angeles Center
10:23AM 35.5922 -115.7814 54° Northeast 341 392 14,400 -1,020 Descending Los Angeles Center
10:23AM 35.6344 -115.7331 43° Northeast 305 351 13,700 -1,020 Descending Los Angeles Center
10:24AM 35.6508 -115.7094 49° Northeast 307 353 13,400 -720 Descending Los Angeles Center
10:24AM 35.6925 -115.6617 43° Northeast 294 338 13,000 -420 Descending Los Angeles Center
10:25AM 35.7072 -115.6372 53° Northeast 296 341 13,000  Level Los Angeles Center
10:26AM 35.7481 -115.5883 44° Northeast 293 337 13,000  Level Los Angeles Center
10:26AM 35.7831 -115.5725 20° North 294 338 13,000  Level Los Angeles Center
10:27AM 35.8264 -115.5708 North 290 334 13,000  Level Los Angeles Center
10:27AM 35.8692 -115.5675 North 289 333 13,000  Level Los Angeles Center
10:28AM 35.9078 -115.5686 359° North 291 335 13,000  Level Los Angeles Center
10:28AM 35.9508 -115.5611 North 292 336 13,000 -240 Level Los Angeles Center
10:29AM 35.9797 -115.5319 39° Northeast 294 338 12,800 -900 Descending Los Angeles Center
10:30AM 36.0125 -115.4336 68° East 293 337 11,700 -1,140 Descending Los Angeles Center
10:30AM 36.0275 -115.3825 70° East 290 334 11,100 -1,140 Descending Los Angeles Center
10:31AM 36.0297 -115.3431 86° East 273 314 10,600 -1,020 Descending Los Angeles Center
10:31AM 36.0247 -115.2925 97° East 265 305 10,100 -1,020 Descending Los Angeles Center
10:32AM 36.0219 -115.2472 94° East 259 298 9,500 -1,080 Descending Los Angeles Center
10:32AM 36.0178 -115.2000 96° East 257 296 9,000 -960 Descending Los Angeles Center
10:33AM 36.0150 -115.1458 94° East 247 284 8,500 -720 Descending Los Angeles Center
10:33AM 36.0122 -115.1158 97° East 250 288 8,300 -660 Descending Los Angeles Center
10:34AM 36.0108 -115.0861 93° East 224 258 8,000 -300 Descending Los Angeles Center
10:34AM 36.0089 -115.0436 93° East 223 257 8,000 -420 Level Los Angeles Center
10:35AM 36.0286 -115.0297 30° Northeast 186 214 7,600 -900 Descending Los Angeles Center
10:35AM 36.0528 -115.0164 24° Northeast 188 216 7,100 -1,020 Descending Los Angeles Center
10:36AM 36.0736 -115.0175 358° North 180 207 6,700 -900 Descending Los Angeles Center
10:36AM 36.0936 -115.0442 313° West 194 223 6,200 -900 Descending Los Angeles Center
10:37AM 36.1031 -115.0636 301° West 177 204 5,800 -2,100 Descending Los Angeles Center
10:38AM 36.1250 -115.1147 298° West 160 184 3,600 -1,620 Descending Los Angeles Center
10:38AM 36.1256 -115.1342 272° West 168 193 2,900 -1,320 Descending Los Angeles Center
10:39AM 36.1033 -115.1539 216° Southwest 137 158 2,200 -2,220 Descending Los Angeles Center
10:41AM 36.0801 -115.1523 270° West  Level Estimated